createdAt,value
2018-07-27T00:01:48.688Z,98579.04
2018-07-27T00:04:19.425Z,98581.03
2018-07-27T00:06:50.825Z,98575.27
2018-07-27T00:09:21.502Z,98578.41
2018-07-27T00:11:51.542Z,98574.79
2018-07-27T00:14:21.603Z,98572.45
2018-07-27T00:16:52.123Z,98566.84
2018-07-27T00:19:22.827Z,98573.13
2018-07-27T00:21:53.323Z,98575.28
2018-07-27T00:24:24.233Z,98570.95
2018-07-27T00:26:56.407Z,98573.61
2018-07-27T00:29:27.162Z,98569.33
2018-07-27T00:31:57.639Z,98569.66
2018-07-27T00:34:28.301Z,98570.33
2018-07-27T00:36:58.757Z,98572.48
2018-07-27T00:39:29.280Z,98565.87
2018-07-27T00:41:59.929Z,98563.19
2018-07-27T00:44:31.061Z,98553.75
2018-07-27T00:47:02.245Z,98547.94
2018-07-27T00:49:33.025Z,98555.73
2018-07-27T00:52:03.646Z,98565.00
2018-07-27T00:54:34.114Z,98566.15
2018-07-27T00:57:04.856Z,98561.52
2018-07-27T00:59:35.521Z,98559.17
2018-07-27T01:02:06.262Z,98564.81
2018-07-27T01:04:36.935Z,98564.95
2018-07-27T01:07:08.136Z,98565.77
2018-07-27T01:09:38.201Z,98568.23
2018-07-27T01:12:08.947Z,98564.62
2018-07-27T01:14:39.564Z,98560.31
2018-07-27T01:17:11.165Z,98563.31
2018-07-27T01:19:41.855Z,98557.84
2018-07-27T01:22:12.496Z,98564.47
2018-07-27T01:24:42.986Z,98566.14
2018-07-27T01:27:13.490Z,98567.12
2018-07-27T01:29:44.239Z,98563.15
2018-07-27T01:32:14.750Z,98555.56
2018-07-27T01:34:45.740Z,98558.86
2018-07-27T01:37:16.959Z,98553.20
2018-07-27T01:39:47.389Z,98548.50
2018-07-27T01:42:18.073Z,98543.03
2018-07-27T01:44:48.078Z,98543.45
2018-07-27T01:47:18.599Z,98541.58
2018-07-27T01:49:49.099Z,98535.95
2018-07-27T01:52:19.928Z,98544.00
2018-07-27T01:54:50.553Z,98544.17
2018-07-27T01:57:21.119Z,98545.14
2018-07-27T01:59:51.546Z,98542.38
2018-07-27T02:02:22.157Z,98540.06
2018-07-27T02:04:53.157Z,98534.29
2018-07-27T02:07:25.279Z,98530.98
2018-07-27T02:09:55.999Z,98533.62
2018-07-27T02:12:26.590Z,98531.48
2018-07-27T02:14:57.163Z,98529.86
2018-07-27T02:17:27.660Z,98539.13
2018-07-27T02:19:58.246Z,98532.86
2018-07-27T02:22:28.697Z,98533.00
2018-07-27T02:24:58.662Z,98531.84
2018-07-27T02:27:29.231Z,98530.51
2018-07-27T02:29:59.822Z,98529.19
2018-07-27T02:32:30.547Z,98526.19
2018-07-27T02:35:02.302Z,98523.88
2018-07-27T02:37:32.874Z,98528.69
2018-07-27T02:40:03.905Z,98520.89
2018-07-27T02:42:34.480Z,98526.19
2018-07-27T02:45:05.181Z,98521.58
2018-07-27T02:47:35.771Z,98519.45
2018-07-27T02:50:06.877Z,98519.28
2018-07-27T02:52:37.360Z,98522.24
2018-07-27T02:55:07.858Z,98522.22
2018-07-27T02:57:38.372Z,98527.30
2018-07-27T03:00:10.049Z,98517.38
2018-07-27T03:02:41.251Z,98515.55
2018-07-27T03:05:11.726Z,98517.87
2018-07-27T03:07:42.296Z,98522.31
2018-07-27T03:10:12.694Z,98527.92
2018-07-27T03:12:43.319Z,98526.93
2018-07-27T03:15:13.910Z,98525.41
2018-07-27T03:17:44.378Z,98526.05
2018-07-27T03:20:15.260Z,98526.54
2018-07-27T03:22:45.820Z,98525.05
2018-07-27T03:25:16.261Z,98524.90
2018-07-27T03:27:47.360Z,98524.70
2018-07-27T03:30:18.684Z,98522.03
2018-07-27T03:32:49.269Z,98528.93
2018-07-27T03:35:20.100Z,98530.69
2018-07-27T03:37:50.743Z,98530.83
2018-07-27T03:40:21.196Z,98535.77
2018-07-27T03:42:51.788Z,98537.08
2018-07-27T03:45:22.335Z,98531.45
2018-07-27T03:47:54.164Z,98528.84
2018-07-27T03:50:25.524Z,98534.46
2018-07-27T03:52:56.056Z,98534.52
2018-07-27T03:55:26.671Z,98545.27
2018-07-27T03:57:57.925Z,98549.41
2018-07-27T04:00:28.500Z,98548.11
2018-07-27T04:02:59.162Z,98539.89
2018-07-27T04:05:30.037Z,98541.21
2018-07-27T04:08:00.617Z,98544.20
2018-07-27T04:10:31.079Z,98549.66
2018-07-27T04:13:01.836Z,98547.20
2018-07-27T04:15:33.877Z,98556.66
2018-07-27T04:18:04.439Z,98555.45
2018-07-27T04:20:34.991Z,98554.46
2018-07-27T04:23:06.178Z,98546.55
2018-07-27T04:25:36.860Z,98549.59
2018-07-27T04:28:07.722Z,98541.75
2018-07-27T04:30:39.011Z,98544.27
2018-07-27T04:33:09.658Z,98556.11
2018-07-27T04:35:40.287Z,98554.52
2018-07-27T04:38:10.698Z,98554.17
2018-07-27T04:40:41.631Z,98561.47
2018-07-27T04:43:12.812Z,98561.83
2018-07-27T04:45:43.419Z,98561.50
2018-07-27T04:48:14.127Z,98569.45
2018-07-27T04:50:44.715Z,98561.05
2018-07-27T04:53:15.401Z,98556.98
2018-07-27T04:55:45.992Z,98563.79
2018-07-27T04:58:16.544Z,98573.42
2018-07-27T05:00:48.318Z,98576.25
2018-07-27T05:03:19.542Z,98570.95
2018-07-27T05:05:49.968Z,98564.86
2018-07-27T05:08:21.530Z,98565.52
2018-07-27T05:10:51.953Z,98564.35
2018-07-27T05:13:22.586Z,98571.12
2018-07-27T05:15:53.168Z,98567.13
2018-07-27T05:18:24.006Z,98569.39
2018-07-27T05:20:56.119Z,98567.08
2018-07-27T05:23:28.027Z,98574.18
2018-07-27T05:25:59.613Z,98573.48
2018-07-27T05:28:31.163Z,98568.30
2018-07-27T05:31:02.658Z,98562.66
2018-07-27T05:33:33.420Z,98555.30
2018-07-27T05:36:04.530Z,98561.16
2018-07-27T05:38:35.245Z,98570.67
2018-07-27T05:41:06.330Z,98561.48
2018-07-27T05:43:36.992Z,98557.53
2018-07-27T05:46:08.591Z,98558.10
2018-07-27T05:48:40.095Z,98570.55
2018-07-27T05:51:11.133Z,98562.28
2018-07-27T05:53:43.434Z,98565.20
2018-07-27T05:56:14.811Z,98563.83
2018-07-27T05:58:47.151Z,98564.73
2018-07-27T06:01:17.883Z,98571.33
2018-07-27T06:03:48.828Z,98567.80
2018-07-27T06:06:18.965Z,98567.45
2018-07-27T06:08:50.608Z,98568.53
2018-07-27T06:11:22.059Z,98574.36
2018-07-27T06:13:52.817Z,98571.30
2018-07-27T06:16:23.633Z,98578.25
2018-07-27T06:18:55.051Z,98570.66
2018-07-27T06:21:25.928Z,98577.73
2018-07-27T06:23:56.628Z,98578.16
2018-07-27T06:26:27.769Z,98575.02
2018-07-27T06:28:58.091Z,98574.38
2018-07-27T06:31:29.448Z,98576.90
2018-07-27T06:34:00.189Z,98589.00
2018-07-27T06:36:31.069Z,98589.73
2018-07-27T06:39:01.722Z,98588.00
2018-07-27T06:41:32.945Z,98588.61
2018-07-27T06:44:04.764Z,98587.69
2018-07-27T06:46:35.526Z,98585.89
2018-07-27T06:49:06.249Z,98583.36
2018-07-27T06:51:37.103Z,98582.80
2018-07-27T06:54:07.835Z,98578.58
2018-07-27T06:56:38.677Z,98578.48
2018-07-27T06:59:09.447Z,98582.41
2018-07-27T07:01:40.267Z,98581.34
2018-07-27T07:04:11.693Z,98586.03
2018-07-27T07:06:43.120Z,98588.91
2018-07-27T07:09:14.000Z,98586.17
2018-07-27T07:11:44.713Z,98586.09
2018-07-27T07:14:16.882Z,98583.86
2018-07-27T07:16:49.305Z,98585.69
2018-07-27T07:19:20.122Z,98590.84
2018-07-27T07:21:50.868Z,98587.03
2018-07-27T07:24:22.605Z,98584.02
2018-07-27T07:26:54.796Z,98584.73
2018-07-27T07:29:26.296Z,98581.71
2018-07-27T07:31:57.420Z,98580.66
2018-07-27T07:34:28.229Z,98582.83
2018-07-27T07:36:59.117Z,98572.36
2018-07-27T07:39:30.058Z,98571.22
2018-07-27T07:42:00.965Z,98576.78
2018-07-27T07:44:32.015Z,98573.68
2018-07-27T07:47:04.816Z,98577.48
2018-07-27T07:49:35.473Z,98576.53
2018-07-27T07:52:06.383Z,98571.11
2018-07-27T07:54:37.050Z,98572.83
2018-07-27T07:57:07.333Z,98571.67
2018-07-27T07:59:38.837Z,98581.55
2018-07-27T08:02:09.969Z,98575.34
2018-07-27T08:04:41.563Z,98576.71
2018-07-27T08:07:12.452Z,98570.80
2018-07-27T08:09:43.135Z,98573.44
2018-07-27T08:12:13.844Z,98575.55
2018-07-27T08:14:43.947Z,98580.98
2018-07-27T08:17:14.660Z,98579.09
2018-07-27T08:19:45.453Z,98575.55
2018-07-27T08:22:16.594Z,98573.05
2018-07-27T08:24:48.428Z,98579.61
2018-07-27T08:27:19.232Z,98579.62
2018-07-27T08:29:50.347Z,98576.28
2018-07-27T08:32:20.646Z,98575.31
2018-07-27T08:34:52.916Z,98571.92
2018-07-27T08:37:24.768Z,98573.70
2018-07-27T08:39:55.469Z,98572.53
2018-07-27T08:42:27.031Z,98571.85
2018-07-27T08:44:59.261Z,98571.61
2018-07-27T08:47:30.433Z,98568.73
2018-07-27T08:50:00.772Z,98560.34
2018-07-27T08:52:31.826Z,98566.78
2018-07-27T08:55:02.785Z,98557.92
2018-07-27T08:57:34.402Z,98561.83
2018-07-27T09:00:07.209Z,98557.48
2018-07-27T09:02:38.338Z,98557.55
2018-07-27T09:05:09.641Z,98559.97
2018-07-27T09:07:40.654Z,98564.16
2018-07-27T09:10:11.465Z,98561.28
2018-07-27T09:12:42.034Z,98569.13
2018-07-27T09:15:13.387Z,98567.64
2018-07-27T09:17:44.275Z,98573.06
2018-07-27T09:20:16.246Z,98562.03
2018-07-27T09:22:47.132Z,98566.00
2018-07-27T09:25:18.673Z,98563.38
2018-07-27T09:27:49.327Z,98560.22
2018-07-27T09:30:19.532Z,98560.13
2018-07-27T09:32:50.368Z,98560.95
2018-07-27T09:35:21.126Z,98555.27
2018-07-27T09:37:52.727Z,98552.77
2018-07-27T09:40:25.285Z,98559.91
2018-07-27T09:42:56.229Z,98557.91
2018-07-27T09:45:27.030Z,98560.22
2018-07-27T09:47:57.959Z,98559.95
2018-07-27T09:50:28.777Z,98557.98
2018-07-27T09:52:59.099Z,98558.30
2018-07-27T09:55:30.051Z,98560.48
2018-07-27T09:58:02.200Z,98558.25
2018-07-27T10:00:38.753Z,98555.73
2018-07-27T10:03:11.629Z,98553.97
2018-07-27T10:05:42.787Z,98550.75
2018-07-27T10:08:15.003Z,98545.44
2018-07-27T10:10:46.315Z,98541.83
2018-07-27T10:13:20.169Z,98550.41
2018-07-27T10:15:51.064Z,98541.50
2018-07-27T10:18:22.181Z,98540.65
2018-07-27T10:20:53.420Z,98541.07
2018-07-27T10:23:25.262Z,98540.51
2018-07-27T10:25:57.166Z,98550.52
2018-07-27T10:28:28.796Z,98548.17
2018-07-27T10:30:59.839Z,98541.75
2018-07-27T10:33:31.125Z,98541.14
2018-07-27T10:36:01.865Z,98538.41
2018-07-27T10:38:33.272Z,98540.71
2018-07-27T10:41:04.010Z,98536.94
2018-07-27T10:43:34.715Z,98535.93
2018-07-27T10:46:05.970Z,98532.05
2018-07-27T10:48:37.765Z,98526.92
2018-07-27T10:51:08.898Z,98527.89
2018-07-27T10:53:40.237Z,98523.33
2018-07-27T10:56:11.624Z,98520.89
2018-07-27T10:58:42.605Z,98525.87
2018-07-27T11:01:13.802Z,98518.44
2018-07-27T11:03:44.602Z,98520.39
2018-07-27T11:06:16.538Z,98517.22
2018-07-27T11:08:48.196Z,98509.38
2018-07-27T11:11:18.912Z,98505.93
2018-07-27T11:13:49.707Z,98513.55
2018-07-27T11:16:20.487Z,98509.84
2018-07-27T11:18:50.584Z,98508.97
2018-07-27T11:21:21.251Z,98502.75
2018-07-27T11:23:52.046Z,98501.70
2018-07-27T11:26:23.896Z,98499.69
2018-07-27T11:28:54.992Z,98496.48
2018-07-27T11:31:26.694Z,98499.61
2018-07-27T11:33:57.452Z,98498.46
2018-07-27T11:36:28.290Z,98490.85
2018-07-27T11:38:59.008Z,98489.74
2018-07-27T11:41:29.725Z,98489.92
2018-07-27T11:44:01.503Z,98494.63
2018-07-27T11:46:33.100Z,98484.30
2018-07-27T11:49:04.252Z,98483.54
2018-07-27T11:51:34.954Z,98494.17
2018-07-27T11:54:05.888Z,98488.94
2018-07-27T11:56:36.102Z,98483.54
2018-07-27T11:59:06.808Z,98478.45
2018-07-27T12:01:37.631Z,98478.72
2018-07-27T12:04:09.156Z,98469.23
2018-07-27T12:06:41.402Z,98464.48
2018-07-27T12:09:12.987Z,98463.92
2018-07-27T12:11:43.935Z,98466.28
2018-07-27T12:14:15.480Z,98463.14
2018-07-27T12:16:46.392Z,98456.29
2018-07-27T12:19:17.445Z,98459.88
2018-07-27T12:21:48.618Z,98456.41
2018-07-27T12:24:21.744Z,98462.48
2018-07-27T12:26:53.141Z,98456.79
2018-07-27T12:29:25.092Z,98451.85
2018-07-27T12:31:55.949Z,98455.29
2018-07-27T12:34:26.786Z,98455.28
2018-07-27T12:36:57.824Z,98454.53
2018-07-27T12:39:28.588Z,98442.55
2018-07-27T12:42:00.418Z,98448.94
2018-07-27T12:44:32.033Z,98446.93
2018-07-27T12:47:02.920Z,98444.71
2018-07-27T12:49:33.973Z,98443.69
2018-07-27T12:52:05.360Z,98435.38
2018-07-27T12:54:37.001Z,98435.84
2018-07-27T12:57:09.468Z,98430.25
2018-07-27T12:59:41.041Z,98429.66
2018-07-27T13:02:12.643Z,98425.05
2018-07-27T13:04:43.853Z,98423.02
2018-07-27T13:07:14.833Z,98414.66
2018-07-27T13:09:45.235Z,98412.33
2018-07-27T13:12:16.187Z,98399.87
2018-07-27T13:14:47.765Z,98403.42
2018-07-27T13:17:18.614Z,98399.98
2018-07-27T13:19:50.234Z,98398.81
2018-07-27T13:22:21.852Z,98399.45
2018-07-27T13:27:26.325Z,98396.20
2018-07-27T13:29:57.154Z,98391.70
2018-07-27T13:32:28.235Z,98389.86
2018-07-27T13:35:01.007Z,98386.14
2018-07-27T13:37:34.523Z,98383.47
2018-07-27T13:40:06.733Z,98380.70
2018-07-27T13:42:38.221Z,98381.05
2018-07-27T13:45:09.237Z,98381.23
2018-07-27T13:47:40.489Z,98379.46
2018-07-27T13:50:11.939Z,98375.42
2018-07-27T13:52:43.790Z,98372.78
2018-07-27T13:55:15.417Z,98370.75
2018-07-27T13:57:46.253Z,98365.72
2018-07-27T14:00:16.944Z,98359.83
2018-07-27T14:02:47.602Z,98358.45
2018-07-27T14:05:18.786Z,98360.51
2018-07-27T14:07:49.529Z,98347.56
2018-07-27T14:10:20.222Z,98354.96
2018-07-27T14:12:52.155Z,98345.53
2018-07-27T14:15:24.367Z,98345.58
2018-07-27T14:17:57.018Z,98343.89
2018-07-27T14:20:27.894Z,98344.06
2018-07-27T14:22:58.774Z,98339.36
2018-07-27T14:25:30.715Z,98344.88
2018-07-27T14:28:01.802Z,98335.71
2018-07-27T14:30:33.771Z,98338.38
2018-07-27T14:33:04.700Z,98335.20
2018-07-27T14:35:36.458Z,98332.67
2018-07-27T14:38:08.135Z,98335.09
2018-07-27T14:40:38.740Z,98339.22
2018-07-27T14:43:09.870Z,98331.64
2018-07-27T14:45:41.510Z,98333.59
2018-07-27T14:48:14.392Z,98329.41
2018-07-27T14:50:45.363Z,98333.00
2018-07-27T14:53:16.077Z,98326.06
2018-07-27T14:55:47.143Z,98331.48
2018-07-27T14:58:18.660Z,98339.58
2018-07-27T15:00:49.171Z,98337.09
2018-07-27T15:03:19.990Z,98336.05
2018-07-27T15:05:51.272Z,98331.11
2018-07-27T15:08:23.202Z,98330.30
2018-07-27T15:10:54.559Z,98332.52
2018-07-27T15:13:26.875Z,98339.23
2018-07-27T15:15:58.051Z,98333.30
2018-07-27T15:18:29.245Z,98331.16
2018-07-27T15:21:01.576Z,98331.66
2018-07-27T15:23:33.467Z,98330.48
2018-07-27T15:26:06.106Z,98322.98
2018-07-27T15:28:37.146Z,98331.05
2018-07-27T15:31:08.151Z,98328.14
2018-07-27T15:33:38.806Z,98326.27
2018-07-27T15:36:09.348Z,98332.13
2018-07-27T15:38:40.303Z,98330.75
2018-07-27T15:41:11.528Z,98333.66
2018-07-27T15:43:43.401Z,98333.50
2018-07-27T15:46:15.359Z,98327.05
2018-07-27T15:48:46.521Z,98321.91
2018-07-27T15:51:17.217Z,98327.33
2018-07-27T15:53:50.922Z,98321.63
2018-07-27T15:56:22.311Z,98323.17
2018-07-27T15:58:53.694Z,98324.53
2018-07-27T16:01:24.819Z,98328.23
2018-07-27T16:03:55.758Z,98322.14
2018-07-27T16:06:26.510Z,98324.05
2018-07-27T16:08:58.123Z,98323.85
2018-07-27T16:11:28.756Z,98323.97
2018-07-27T16:13:59.596Z,98318.60
2018-07-27T16:16:31.003Z,98312.61
2018-07-27T16:19:03.204Z,98322.64
2018-07-27T16:21:34.782Z,98317.36
2018-07-27T16:24:05.588Z,98316.39
2018-07-27T16:26:36.239Z,98323.16
2018-07-27T16:29:06.897Z,98329.88
2018-07-27T16:31:37.731Z,98320.84
2018-07-27T16:34:08.775Z,98325.97
2018-07-27T16:36:40.095Z,98341.88
2018-07-27T16:39:11.936Z,98345.26
2018-07-27T16:41:42.774Z,98348.88
2018-07-27T16:44:13.573Z,98352.73
2018-07-27T16:46:44.371Z,98352.37
2018-07-27T16:49:15.280Z,98331.80
2018-07-27T16:51:46.720Z,98346.33
2018-07-27T16:54:18.462Z,98341.95
2018-07-27T16:56:50.206Z,98348.82
2018-07-27T16:59:20.900Z,98349.23
2018-07-27T17:01:53.412Z,98355.11
2018-07-27T17:04:24.557Z,98356.59
2018-07-27T17:06:58.908Z,98359.78
2018-07-27T17:09:30.865Z,98352.70
2018-07-27T17:12:03.204Z,98362.77
2018-07-27T17:14:35.636Z,98354.65
2018-07-27T17:17:06.900Z,98353.60
2018-07-27T17:19:37.788Z,98362.97
2018-07-27T17:22:08.810Z,98369.33
2018-07-27T17:24:39.685Z,98367.94
2018-07-27T17:27:11.773Z,98367.61
2018-07-27T17:29:43.874Z,98369.66
2018-07-27T17:32:15.639Z,98375.59
2018-07-27T17:34:46.329Z,98378.36
2018-07-27T17:37:17.275Z,98375.66
2018-07-27T17:39:49.189Z,98383.27
2018-07-27T17:42:19.802Z,98377.52
2018-07-27T17:44:52.767Z,98377.61
2018-07-27T17:47:25.963Z,98377.95
2018-07-27T17:49:57.593Z,98375.17
2018-07-27T17:52:29.130Z,98375.10
2018-07-27T17:55:00.387Z,98371.86
2018-07-27T17:57:32.559Z,98374.34
2018-07-27T18:00:03.533Z,98379.14
2018-07-27T18:02:35.728Z,98370.80
2018-07-27T18:05:06.904Z,98375.52
2018-07-27T18:07:37.654Z,98371.39
2018-07-27T18:10:08.851Z,98375.09
2018-07-27T18:12:39.974Z,98370.78
2018-07-27T18:15:12.265Z,98369.77
2018-07-27T18:17:43.398Z,98377.55
2018-07-27T18:20:15.275Z,98381.55
2018-07-27T18:22:48.869Z,98374.57
2018-07-27T18:25:20.524Z,98375.05
2018-07-27T18:27:52.655Z,98371.84
2018-07-27T18:30:23.959Z,98374.19
2018-07-27T18:32:54.515Z,98378.84
2018-07-27T18:35:25.829Z,98380.94
2018-07-27T18:37:58.692Z,98370.15
2018-07-27T18:40:29.563Z,98377.23
2018-07-27T18:43:01.267Z,98377.31
2018-07-27T18:45:34.743Z,98386.73
2018-07-27T18:48:05.546Z,98388.10
2018-07-27T18:50:37.107Z,98391.73
2018-07-27T18:53:09.446Z,98398.27
2018-07-27T18:55:41.069Z,98403.52
2018-07-27T18:58:12.034Z,98398.89
2018-07-27T19:00:44.099Z,98402.55
2018-07-27T19:03:15.921Z,98407.30
2018-07-27T19:05:47.018Z,98401.77
2018-07-27T19:08:18.591Z,98403.22
2018-07-27T19:10:51.315Z,98401.18
2018-07-27T19:13:22.263Z,98399.47
2018-07-27T19:15:53.954Z,98404.92
2018-07-27T19:18:25.352Z,98408.30
2018-07-27T19:20:56.164Z,98414.75
2018-07-27T19:23:27.195Z,98420.28
2018-07-27T19:25:57.904Z,98422.50
2018-07-27T19:28:29.748Z,98419.93
2018-07-27T19:31:01.626Z,98417.39
2018-07-27T19:33:33.720Z,98415.53
2018-07-27T19:36:06.143Z,98423.45
2018-07-27T19:38:38.388Z,98425.23
2018-07-27T19:41:09.302Z,98430.77
2018-07-27T19:43:40.915Z,98434.56
2018-07-27T19:46:11.807Z,98445.14
2018-07-27T19:48:42.903Z,98452.71
2018-07-27T19:51:13.341Z,98454.17
2018-07-27T19:53:44.205Z,98459.24
2018-07-27T19:56:14.907Z,98458.54
2018-07-27T19:58:47.946Z,98471.17
2018-07-27T20:01:20.606Z,98467.95
2018-07-27T20:03:51.738Z,98467.39
2018-07-27T20:06:22.521Z,98468.92
2018-07-27T20:08:53.307Z,98474.38
2018-07-27T20:11:24.669Z,98471.52
2018-07-27T20:13:55.633Z,98472.41
2018-07-27T20:16:27.068Z,98469.41
2018-07-27T20:19:00.872Z,98467.58
2018-07-27T20:21:31.725Z,98464.67
2018-07-27T20:24:02.394Z,98467.09
2018-07-27T20:26:33.135Z,98461.77
2018-07-27T20:29:04.212Z,98462.61
2018-07-27T20:31:35.822Z,98457.08
2018-07-27T20:34:07.054Z,98460.74
2018-07-27T20:36:39.872Z,98462.67
2018-07-27T20:39:14.514Z,98460.64
2018-07-27T20:41:46.534Z,98463.23
2018-07-27T20:44:17.935Z,98466.53
2018-07-27T20:46:49.169Z,98464.70
2018-07-27T20:49:20.550Z,98472.86
2018-07-27T20:51:51.383Z,98484.14
2018-07-27T20:54:22.160Z,98485.73
2018-07-27T20:56:52.862Z,98492.11
2018-07-27T20:59:23.598Z,98481.86
2018-07-27T21:01:54.647Z,98492.20
2018-07-27T21:04:25.282Z,98483.72
2018-07-27T21:06:56.566Z,98489.68
2018-07-27T21:09:27.639Z,98488.21
2018-07-27T21:11:58.416Z,98481.89
2018-07-27T21:14:29.369Z,98488.41
2018-07-27T21:17:01.060Z,98482.65
2018-07-27T21:19:31.842Z,98489.48
2018-07-27T21:22:02.827Z,98494.38
2018-07-27T21:24:35.879Z,98488.56
2018-07-27T21:27:06.634Z,98489.27
2018-07-27T21:29:37.340Z,98493.31
2018-07-27T21:32:08.733Z,98494.25
2018-07-27T21:34:39.826Z,98500.20
2018-07-27T21:37:11.615Z,98500.04
2018-07-27T21:39:43.972Z,98505.03
2018-07-27T21:42:15.116Z,98511.19
2018-07-27T21:44:45.991Z,98519.27
2018-07-27T21:47:16.800Z,98514.01
2018-07-27T21:49:47.820Z,98511.61
2018-07-27T21:52:18.510Z,98507.23
2018-07-27T21:54:49.927Z,98515.25
2018-07-27T21:57:21.763Z,98515.31
2018-07-27T21:59:52.739Z,98513.23
2018-07-27T22:02:23.618Z,98510.04
2018-07-27T22:04:54.519Z,98508.70
2018-07-27T22:07:25.809Z,98515.66
2018-07-27T22:09:56.687Z,98509.70
2018-07-27T22:12:27.698Z,98516.25
2018-07-27T22:14:58.754Z,98513.79
2018-07-27T22:17:29.440Z,98512.01
2018-07-27T22:20:00.453Z,98512.61
2018-07-27T22:22:32.164Z,98519.45
2018-07-27T22:25:03.642Z,98511.48
2018-07-27T22:27:34.486Z,98507.53
2018-07-27T22:30:06.684Z,98511.12
2018-07-27T22:32:37.328Z,98505.14
2018-07-27T22:35:08.413Z,98501.20
2018-07-27T22:37:40.604Z,98494.95
2018-07-27T22:40:12.018Z,98500.79
2018-07-27T22:42:42.685Z,98505.63
2018-07-27T22:45:13.333Z,98507.10
2018-07-27T22:47:43.874Z,98511.23
2018-07-27T22:50:15.347Z,98507.74
2018-07-27T22:52:46.435Z,98509.56
2018-07-27T22:55:16.976Z,98506.95
2018-07-27T22:57:47.975Z,98508.66
2018-07-27T23:00:18.858Z,98502.66
2018-07-27T23:02:49.298Z,98508.06
2018-07-27T23:05:20.037Z,98508.70
2018-07-27T23:07:51.892Z,98509.05
2018-07-27T23:10:22.705Z,98515.70
2018-07-27T23:12:53.423Z,98511.71
2018-07-27T23:15:24.682Z,98515.05
2018-07-27T23:17:55.501Z,98516.13
2018-07-27T23:20:26.029Z,98515.33
2018-07-27T23:22:56.483Z,98518.86
2018-07-27T23:25:27.503Z,98510.90
2018-07-27T23:27:58.145Z,98513.20
2018-07-27T23:30:28.703Z,98512.87
2018-07-27T23:32:59.933Z,98510.74
2018-07-27T23:35:30.425Z,98515.22
2018-07-27T23:38:01.967Z,98512.80
2018-07-27T23:40:32.735Z,98511.66
2018-07-27T23:43:03.368Z,98510.41
2018-07-27T23:45:34.345Z,98517.08
2018-07-27T23:48:05.590Z,98508.96
2018-07-27T23:50:36.749Z,98502.84
2018-07-27T23:53:09.140Z,98497.54
2018-07-27T23:55:39.779Z,98494.88
2018-07-27T23:58:10.478Z,98493.59
